Time;durP1;ratioP1;P1;durP2;ratioP2;P2;SDS_P1;SDS_P2;PMS_P1;PMS_P2;Temp;Humidity;BMP_temperature;BMP_pressure;BME280_temperature;BME280_humidity;BME280_pressure;Samples;Min_cycle;Max_cycle;Signal;HPM_P1;HPM_P2
2022/03/19 00:00:38;;;;;;;;;24.75;22.75;;;;;15.39;34.45;100803.09;4906112;28;102329;-83
2022/03/19 00:03:05;;;;;;;;;23.50;20.50;;;;;15.39;34.83;100799.50;4903817;28;102195;-83
2022/03/19 00:05:32;;;;;;;;;26.25;20.50;;;;;15.39;34.49;100804.97;4896523;28;102179;-83
2022/03/19 00:08:00;;;;;;;;;21.50;18.75;;;;;15.41;34.37;100805.63;4912543;28;104106;-83
2022/03/19 00:10:27;;;;;;;;;23.25;21.50;;;;;15.40;34.27;100802.03;4920581;28;105833;-83
2022/03/19 00:12:54;;;;;;;;;23.00;21.00;;;;;15.40;34.49;100806.69;4914689;28;102780;-83
2022/03/19 00:15:21;;;;;;;;;27.25;22.25;;;;;15.40;34.36;100812.13;4904205;28;102239;-83
2022/03/19 00:17:48;;;;;;;;;23.00;21.25;;;;;15.39;34.47;100810.41;4893617;28;103819;-83
2022/03/19 00:20:15;;;;;;;;;24.50;20.25;;;;;15.38;34.63;100812.28;4894107;28;102407;-83
2022/03/19 00:22:42;;;;;;;;;27.50;23.75;;;;;15.37;34.29;100807.00;4899803;28;102637;-83
2022/03/19 00:25:10;;;;;;;;;26.50;24.00;;;;;15.37;34.52;100801.56;4902547;28;102833;-83
2022/03/19 00:27:39;;;;;;;;;24.50;20.00;;;;;15.36;34.70;100806.16;4903209;28;104070;-83
2022/03/19 00:30:08;;;;;;;;;23.75;22.75;;;;;15.34;34.54;100801.91;4905648;28;102600;-83
2022/03/19 00:32:35;;;;;;;;;23.00;20.75;;;;;15.34;34.86;100802.78;4898728;28;102472;-83
2022/03/19 00:35:03;;;;;;;;;22.00;20.25;;;;;15.33;34.18;100794.75;4898912;28;102494;-83
2022/03/19 00:37:32;;;;;;;;;26.25;24.25;;;;;15.34;34.40;100785.56;4904240;28;104261;-84
2022/03/19 00:39:59;;;;;;;;;29.50;24.25;;;;;15.34;34.39;100785.56;4896389;28;102644;-84
2022/03/19 00:42:26;;;;;;;;;24.25;21.25;;;;;15.34;34.40;100777.38;4927434;28;103200;-83
2022/03/19 00:44:53;;;;;;;;;23.00;22.00;;;;;15.33;34.42;100781.13;4902539;28;102264;-83
2022/03/19 00:47:20;;;;;;;;;14.00;11.25;;;;;15.32;34.44;100773.97;4897717;28;104244;-83
2022/03/19 00:49:47;;;;;;;;;27.00;23.00;;;;;15.31;34.43;100775.03;4891644;28;102437;-83
2022/03/19 00:52:14;;;;;;;;;24.50;18.25;;;;;15.29;34.38;100777.06;4906468;28;102304;-83
2022/03/19 00:54:41;;;;;;;;;21.50;19.50;;;;;15.28;34.56;100770.75;4897362;28;102637;-83
2022/03/19 00:57:08;;;;;;;;;24.00;20.75;;;;;15.27;34.93;100776.38;4900423;28;104273;-83
2022/03/19 00:59:35;;;;;;;;;28.00;23.75;;;;;15.25;34.72;100776.59;4926983;28;102514;-83
2022/03/19 01:02:02;;;;;;;;;24.00;22.50;;;;;15.25;34.56;100782.03;4892573;28;102449;-83
2022/03/19 01:04:29;;;;;;;;;24.50;22.25;;;;;15.21;34.53;100774.41;4921895;28;102747;-83
2022/03/19 01:06:56;;;;;;;;;23.75;21.00;;;;;15.20;34.43;100779.00;4898242;28;104132;-83
2022/03/19 01:09:23;;;;;;;;;20.50;18.25;;;;;15.19;34.55;100777.28;4904892;28;103523;-83
2022/03/19 01:11:51;;;;;;;;;24.25;22.50;;;;;15.13;35.02;100762.50;4911163;28;102396;-83
2022/03/19 01:14:19;;;;;;;;;26.75;23.25;;;;;15.15;34.88;100776.81;4912821;28;102354;-83
2022/03/19 01:16:46;;;;;;;;;22.00;20.75;;;;;15.12;34.31;100774.44;4898060;28;104145;-83
2022/03/19 01:19:13;;;;;;;;;24.50;20.50;;;;;15.11;34.84;100789.09;4895883;28;102770;-83
2022/03/19 01:21:41;;;;;;;;;23.25;21.25;;;;;15.12;35.01;100788.06;4902387;28;102276;-84
2022/03/19 01:24:08;;;;;;;;;23.25;22.50;;;;;15.12;34.47;100785.34;4905043;28;102104;-83
2022/03/19 01:26:36;;;;;;;;;24.75;21.00;;;;;15.13;34.58;100784.28;4896161;28;104081;-83
2022/03/19 01:29:03;;;;;;;;;21.25;18.75;;;;;15.13;34.36;100795.19;4889129;28;102519;-83
2022/03/19 01:31:31;;;;;;;;;24.25;22.25;;;;;15.13;34.80;100784.28;4900971;28;102225;-83
2022/03/19 01:33:58;;;;;;;;;27.25;22.00;;;;;15.12;34.55;100787.22;4894134;28;102270;-83
2022/03/19 01:36:25;;;;;;;;;26.00;22.00;;;;;15.13;34.12;100788.88;4900139;28;108273;-83
2022/03/19 01:38:52;;;;;;;;;26.00;23.25;;;;;15.12;34.68;100785.34;4894531;28;102248;-83
2022/03/19 01:41:19;;;;;;;;;21.00;18.50;;;;;15.13;34.41;100783.44;4891953;28;102563;-83
2022/03/19 01:43:46;;;;;;;;;23.25;22.00;;;;;15.13;34.33;100780.72;4897323;28;102682;-84
2022/03/19 01:46:13;;;;;;;;;27.00;21.25;;;;;15.12;34.27;100779.88;4897888;28;104019;-83
2022/03/19 01:48:40;;;;;;;;;23.50;20.25;;;;;15.14;34.41;100785.13;4897157;28;104390;-83
2022/03/19 01:51:07;;;;;;;;;32.25;23.75;;;;;15.12;34.33;100777.16;4888459;28;102154;-84
2022/03/19 01:53:35;;;;;;;;;24.25;21.25;;;;;15.14;34.57;100776.97;4883837;28;102279;-83
2022/03/19 01:56:02;;;;;;;;;25.50;22.00;;;;;15.12;34.18;100771.72;4887946;28;104233;-83
2022/03/19 01:58:30;;;;;;;;;22.25;19.75;;;;;15.14;34.35;100769.66;4909738;28;102361;-83
2022/03/19 02:00:57;;;;;;;;;21.75;20.25;;;;;15.15;34.73;100768.63;4890947;28;102564;-83
2022/03/19 02:03:24;;;;;;;;;28.50;22.75;;;;;15.15;34.81;100765.91;4876473;28;103323;-83
2022/03/19 02:05:51;;;;;;;;;23.25;18.00;;;;;15.15;34.51;100765.91;4898624;28;104282;-84
2022/03/19 02:08:19;;;;;;;;;28.75;21.75;;;;;15.18;34.34;100768.25;4913251;28;102546;-83
2022/03/19 02:10:46;;;;;;;;;23.00;20.75;;;;;15.15;33.95;100768.63;4882231;28;102337;-83
2022/03/19 02:13:13;;;;;;;;;24.50;22.00;;;;;15.14;34.16;100764.19;4891183;28;103564;-83
2022/03/19 02:15:40;;;;;;;;;23.75;19.25;;;;;15.15;34.53;100768.63;4888341;28;104142;-83
2022/03/19 02:18:08;;;;;;;;;22.50;22.00;;;;;15.15;34.14;100765.03;4900246;28;102799;-83
2022/03/19 02:20:36;;;;;;;;;23.00;21.75;;;;;15.14;34.32;100771.50;4895901;28;102546;-83
2022/03/19 02:25:48;;;;;;;;;28.50;23.00;;;;;15.13;33.97;100767.94;4901660;28;104546;-84
2022/03/19 02:28:15;;;;;;;;;24.25;22.00;;;;;15.13;34.07;100761.63;4901199;28;102406;-84
2022/03/19 02:30:43;;;;;;;;;20.25;18.75;;;;;15.12;34.27;100763.53;4901267;28;102529;-83
2022/03/19 02:33:10;;;;;;;;;25.75;23.00;;;;;15.11;34.37;100767.28;4905455;28;102971;-83
2022/03/19 02:35:37;;;;;;;;;23.75;21.00;;;;;15.09;34.03;100766.59;4907762;28;104253;-83
2022/03/19 02:38:04;;;;;;;;;23.75;21.25;;;;;15.06;34.57;100764.25;4885163;28;102446;-83
2022/03/19 02:40:32;;;;;;;;;26.00;22.75;;;;;15.05;34.48;100757.09;4902455;28;102358;-84
2022/03/19 02:42:59;;;;;;;;;29.75;22.75;;;;;15.03;34.51;100756.44;4907878;28;102576;-83
2022/03/19 02:45:26;;;;;;;;;26.75;21.00;;;;;15.05;34.35;100753.50;4894416;28;104288;-83
2022/03/19 02:47:59;;;;;;;;;21.75;20.50;;;;;15.05;34.57;100754.34;4895684;28;103602;-83
2022/03/19 02:50:30;;;;;;;;;24.50;21.25;;;;;15.06;34.65;100752.50;4903998;28;104021;-84
2022/03/19 02:52:58;;;;;;;;;25.00;21.25;;;;;15.04;34.23;100749.94;4885947;28;102340;-83
2022/03/19 02:55:25;;;;;;;;;22.50;19.50;;;;;15.02;34.56;100749.28;4895997;28;104021;-83
2022/03/19 02:57:52;;;;;;;;;23.75;22.00;;;;;15.02;34.14;100753.88;4900507;28;102484;-83
2022/03/19 03:00:20;;;;;;;;;19.50;18.50;;;;;14.99;34.24;100746.91;4902528;28;102209;-84
2022/03/19 03:02:48;;;;;;;;;28.75;21.50;;;;;14.99;34.36;100748.78;4900074;28;102338;-84
2022/03/19 03:05:15;;;;;;;;;26.50;23.50;;;;;14.96;34.16;100739.06;4901697;28;104037;-84
2022/03/19 03:07:42;;;;;;;;;23.75;20.50;;;;;14.95;34.08;100748.25;4904966;28;102085;-83
2022/03/19 03:10:09;;;;;;;;;25.50;21.75;;;;;14.94;34.23;100743.88;4907270;28;103210;-84
2022/03/19 03:12:36;;;;;;;;;24.75;22.75;;;;;14.94;34.48;100741.16;4900177;28;102620;-84
2022/03/19 03:15:04;;;;;;;;;21.75;20.25;;;;;14.94;34.73;100743.88;4903005;28;104014;-84
2022/03/19 03:17:31;;;;;;;;;31.25;23.25;;;;;14.95;34.48;100745.53;4890910;28;102782;-84
2022/03/19 03:19:58;;;;;;;;;22.75;21.50;;;;;14.95;34.03;100742.81;4893885;28;102251;-84
2022/03/19 03:22:25;;;;;;;;;22.00;20.00;;;;;14.96;34.39;100755.41;4894436;28;102411;-84
2022/03/19 03:24:52;;;;;;;;;29.50;24.50;;;;;14.98;33.96;100755.25;4891217;28;104075;-83
2022/03/19 03:27:19;;;;;;;;;28.25;24.75;;;;;14.98;33.74;100753.38;4900228;28;102351;-84
2022/03/19 03:29:46;;;;;;;;;29.50;25.75;;;;;14.99;33.95;100749.63;4897419;28;102419;-84
2022/03/19 03:32:13;;;;;;;;;28.25;24.50;;;;;15.00;33.73;100751.31;4900086;28;102482;-84
2022/03/19 03:34:41;;;;;;;;;30.25;25.75;;;;;15.02;33.91;100748.41;4897026;28;104087;-84
2022/03/19 03:37:09;;;;;;;;;27.75;24.00;;;;;15.01;33.81;100749.44;4904146;28;102479;-84
2022/03/19 03:39:36;;;;;;;;;28.50;23.25;;;;;15.02;34.43;100749.28;4906073;28;102548;-83
2022/03/19 03:42:03;;;;;;;;;24.50;21.25;;;;;15.03;33.77;100748.25;4911585;28;102590;-84
2022/03/19 03:44:32;;;;;;;;;26.50;22.25;;;;;15.05;33.78;100758.94;4902222;28;109491;-84
2022/03/19 03:47:01;;;;;;;;;28.75;22.25;;;;;15.04;33.98;100747.19;4890665;28;102330;-84
2022/03/19 03:49:28;;;;;;;;;22.50;22.00;;;;;15.06;34.11;100755.22;4905826;28;102547;-84
2022/03/19 03:51:56;;;;;;;;;28.50;25.00;;;;;15.07;33.91;100757.78;4907105;28;102516;-84
2022/03/19 03:54:22;;;;;;;;;27.25;23.25;;;;;15.05;33.78;100753.50;4893555;28;104026;-83
2022/03/19 03:56:50;;;;;;;;;29.25;25.00;;;;;15.06;33.97;100755.22;4900049;28;102417;-83
2022/03/19 03:59:17;;;;;;;;;27.25;23.75;;;;;15.05;34.21;100754.34;4896913;28;102228;-84
2022/03/19 04:01:44;;;;;;;;;27.50;23.00;;;;;15.06;33.75;100760.66;4897692;28;105989;-84
2022/03/19 04:04:11;;;;;;;;;22.75;21.00;;;;;15.05;34.06;100759.81;4899936;28;103860;-84
2022/03/19 04:06:38;;;;;;;;;23.25;21.50;;;;;15.05;34.28;100758.94;4906609;28;102198;-83
2022/03/19 04:09:06;;;;;;;;;24.50;22.75;;;;;15.05;34.02;100759.81;4894944;28;102139;-84
2022/03/19 04:11:32;;;;;;;;;26.25;22.25;;;;;15.06;34.10;100756.06;4906024;28;102297;-83
2022/03/19 04:14:02;;;;;;;;;22.75;21.75;;;;;15.06;33.69;100758.78;4907707;28;108984;-84
2022/03/19 04:16:29;;;;;;;;;26.00;22.25;;;;;15.05;33.55;100762.53;4907443;28;102829;-84
2022/03/19 04:18:56;;;;;;;;;23.00;20.25;;;;;15.04;34.00;100766.28;4899094;28;102547;-84
2022/03/19 04:21:23;;;;;;;;;22.00;19.75;;;;;15.03;33.76;100761.03;4905243;28;102544;-83
2022/03/19 04:23:50;;;;;;;;;22.50;22.00;;;;;15.01;34.58;100766.63;4894500;28;104089;-83
2022/03/19 04:26:17;;;;;;;;;27.25;23.50;;;;;14.99;33.92;100771.44;4899123;28;102718;-83
2022/03/19 04:28:44;;;;;;;;;27.50;19.50;;;;;14.99;33.82;100773.31;4893361;28;102746;-83
2022/03/19 04:31:11;;;;;;;;;28.00;23.00;;;;;14.97;34.11;100778.06;4896045;28;102339;-84
2022/03/19 04:33:38;;;;;;;;;25.00;20.50;;;;;14.94;33.77;100771.09;4897882;28;104310;-83
2022/03/19 04:38:51;;;;;;;;;21.50;19.50;;;;;14.93;34.33;100771.28;4894451;28;102125;-83
2022/03/19 04:41:18;;;;;;;;;23.25;20.50;;;;;14.91;34.46;100757.81;4902330;28;102367;-83
2022/03/19 04:43:45;;;;;;;;;22.25;20.25;;;;;14.87;33.96;100758.34;4896745;28;103981;-83
2022/03/19 04:46:12;;;;;;;;;20.75;19.50;;;;;14.83;33.73;100763.31;4904693;28;102381;-84
2022/03/19 04:48:42;;;;;;;;;18.25;17.25;;;;;14.82;33.80;100752.56;4903756;28;105312;-83
2022/03/19 04:51:11;;;;;;;;;24.25;22.50;;;;;14.81;33.80;100761.78;4898223;28;102235;-84
2022/03/19 04:53:38;;;;;;;;;26.25;22.25;;;;;14.81;34.12;100762.66;4919065;28;104304;-83
2022/03/19 04:56:06;;;;;;;;;22.00;22.00;;;;;14.81;34.18;100759.94;4899687;28;102338;-83
2022/03/19 04:58:33;;;;;;;;;22.50;20.25;;;;;14.81;34.40;100759.94;4896843;28;102452;-84
2022/03/19 05:01:00;;;;;;;;;24.25;22.25;;;;;14.79;33.69;100758.38;4911904;28;102307;-84
2022/03/19 05:03:27;;;;;;;;;27.25;21.25;;;;;14.79;33.95;100756.50;4897385;28;104430;-83
2022/03/19 05:05:55;;;;;;;;;22.50;18.75;;;;;14.79;34.38;100756.50;4898453;28;104343;-83
2022/03/19 05:08:22;;;;;;;;;23.25;20.25;;;;;14.79;34.37;100758.38;4899477;28;102690;-84
2022/03/19 05:13:53;;;;;;;;;24.00;22.00;;;;;14.78;34.24;100762.97;4859087;28;110236;-83
2022/03/19 05:16:20;;;;;;;;;24.75;22.50;;;;;14.78;34.39;100765.69;4895812;28;102424;-84
2022/03/19 05:18:47;;;;;;;;;27.50;23.50;;;;;14.78;34.20;100757.53;4896195;28;102289;-83
2022/03/19 05:21:14;;;;;;;;;27.00;21.25;;;;;14.77;34.37;100766.72;4893505;28;102298;-83
2022/03/19 05:23:42;;;;;;;;;22.50;20.00;;;;;14.78;34.19;100764.84;4894927;28;103885;-83
2022/03/19 05:26:10;;;;;;;;;23.00;21.50;;;;;14.80;34.02;100773.72;4896990;28;102316;-83
2022/03/19 05:28:38;;;;;;;;;25.25;21.50;;;;;14.77;34.12;100769.44;4894663;28;102488;-83
2022/03/19 05:31:25;;;;;;;;;24.50;23.50;;;;;14.77;34.45;100765.91;4906122;28;103337;-83
2022/03/19 05:36:38;;;;;;;;;26.50;21.00;;;;;14.79;34.46;100770.13;4899185;28;102763;-83
2022/03/19 05:39:05;;;;;;;;;24.00;22.50;;;;;14.81;33.92;100769.97;4899081;28;102241;-83
2022/03/19 05:41:32;;;;;;;;;25.75;21.75;;;;;14.82;33.75;100775.22;4894789;28;102363;-83
2022/03/19 05:44:01;;;;;;;;;22.75;20.75;;;;;14.82;33.94;100763.47;4889172;28;109129;-83
2022/03/19 05:46:28;;;;;;;;;23.50;20.25;;;;;14.83;34.21;100774.19;4889357;28;102362;-83
2022/03/19 05:48:55;;;;;;;;;21.75;19.50;;;;;14.85;34.28;100774.03;4897502;28;102355;-83
2022/03/19 05:51:22;;;;;;;;;23.00;22.00;;;;;14.84;33.95;100773.19;4894156;28;102192;-83
2022/03/19 05:53:49;;;;;;;;;23.75;22.50;;;;;14.85;34.00;100777.59;4892729;28;104079;-83
2022/03/19 05:56:17;;;;;;;;;22.50;18.50;;;;;14.86;34.13;100776.56;4889054;28;110124;-83
2022/03/19 05:58:44;;;;;;;;;24.25;22.00;;;;;14.85;34.05;100783.06;4892494;28;102152;-83
2022/03/19 06:01:12;;;;;;;;;26.75;23.00;;;;;14.84;33.84;100775.91;4889465;28;102624;-83
2022/03/19 06:03:39;;;;;;;;;25.00;23.00;;;;;14.85;34.43;100783.06;4890047;28;104269;-83
2022/03/19 06:06:06;;;;;;;;;18.00;12.75;;;;;14.84;34.02;100794.97;4904783;28;102357;-83
2022/03/19 06:08:33;;;;;;;;;20.00;19.25;;;;;14.84;33.91;100789.53;4892262;28;102186;-84
2022/03/19 06:11:00;;;;;;;;;18.50;17.00;;;;;14.84;33.91;100786.81;4891473;28;102895;-83
2022/03/19 06:13:27;;;;;;;;;26.00;22.00;;;;;14.82;34.00;100797.00;4896344;28;104068;-84
2022/03/19 06:15:54;;;;;;;;;22.75;20.25;;;;;14.84;34.21;100789.53;4884387;28;103074;-83
2022/03/19 06:18:21;;;;;;;;;21.50;21.00;;;;;14.84;34.08;100789.53;4887121;28;102412;-83
2022/03/19 06:20:48;;;;;;;;;22.75;20.75;;;;;14.84;34.39;100794.13;4896801;28;104162;-83
2022/03/19 06:23:15;;;;;;;;;21.75;19.50;;;;;14.84;33.88;100796.84;4889864;28;104071;-83
2022/03/19 06:25:42;;;;;;;;;23.50;20.75;;;;;14.84;34.35;100794.97;4895323;28;102614;-83
2022/03/19 06:28:09;;;;;;;;;24.75;20.75;;;;;14.83;34.14;100792.41;4904018;28;102397;-83
2022/03/19 06:30:37;;;;;;;;;18.75;17.75;;;;;14.83;33.98;100793.25;4893113;28;102489;-83
2022/03/19 06:33:04;;;;;;;;;23.75;19.00;;;;;14.83;34.14;100800.59;4896717;28;108922;-83
2022/03/19 06:38:18;;;;;;;;;18.50;17.00;;;;;14.82;33.74;100802.44;4897098;28;102315;-84
2022/03/19 06:40:45;;;;;;;;;22.75;21.25;;;;;14.82;34.13;100791.56;4903208;28;102641;-83
2022/03/19 06:43:12;;;;;;;;;23.75;19.25;;;;;14.82;34.39;100801.59;4896395;28;105472;-84
2022/03/19 06:45:39;;;;;;;;;24.25;20.00;;;;;14.83;33.84;100793.25;4902568;28;102607;-84
2022/03/19 06:48:06;;;;;;;;;19.25;18.50;;;;;14.80;33.80;100801.78;4895290;28;102711;-83
2022/03/19 06:50:33;;;;;;;;;21.50;20.75;;;;;14.80;33.80;100801.78;4890548;28;103715;-83
2022/03/19 06:53:03;;;;;;;;;22.00;15.00;;;;;14.81;34.37;100806.22;4891432;28;104058;-83
2022/03/19 06:55:32;;;;;;;;;21.00;17.00;;;;;14.78;34.28;100805.69;4896554;28;102535;-83
2022/03/19 06:57:59;;;;;;;;;21.75;20.25;;;;;14.80;33.96;100801.78;4920640;28;102396;-83
2022/03/19 07:00:26;;;;;;;;;19.25;17.25;;;;;14.82;34.54;100807.06;4903535;28;102558;-83
2022/03/19 07:02:54;;;;;;;;;19.00;16.25;;;;;14.82;34.46;100798.88;4892309;28;104360;-83
2022/03/19 07:05:25;;;;;;;;;21.00;18.75;;;;;14.80;33.59;100799.06;4890384;28;102631;-83
2022/03/19 07:07:53;;;;;;;;;22.50;19.00;;;;;14.80;33.93;100804.53;4894261;28;102028;-83
2022/03/19 07:10:20;;;;;;;;;18.50;18.50;;;;;14.81;33.85;100799.94;4892019;28;102653;-83
2022/03/19 07:12:57;;;;;;;;;19.00;16.25;;;;;14.80;34.05;100798.22;4887004;28;105096;-83
2022/03/19 07:15:27;;;;;;;;;20.50;18.25;;;;;14.79;34.02;100797.38;4894918;28;103440;-83
2022/03/19 07:17:55;;;;;;;;;21.75;19.00;;;;;14.78;34.37;100801.09;4903551;28;102637;-83
2022/03/19 07:20:22;;;;;;;;;19.25;19.25;;;;;14.79;33.97;100804.69;4916522;28;102601;-83
2022/03/19 07:22:51;;;;;;;;;22.00;18.25;;;;;14.79;34.00;100800.09;4905647;28;104300;-83
2022/03/19 07:25:20;;;;;;;;;19.00;17.50;;;;;14.78;33.78;100797.53;4908882;28;102803;-83
2022/03/19 07:27:49;;;;;;;;;19.25;15.00;;;;;14.77;34.51;100804.84;4898610;28;102505;-83
2022/03/19 07:30:16;;;;;;;;;19.75;17.25;;;;;14.77;34.41;100798.56;4917148;28;102730;-83
2022/03/19 07:32:43;;;;;;;;;19.00;17.25;;;;;14.77;34.30;100804.84;4882542;28;103892;-83
2022/03/19 07:35:10;;;;;;;;;17.25;15.25;;;;;14.76;34.52;100807.75;4889513;28;102366;-82
2022/03/19 07:37:37;;;;;;;;;17.25;16.00;;;;;14.76;33.84;100802.31;4897538;28;102171;-83
2022/03/19 07:40:05;;;;;;;;;15.25;14.00;;;;;14.75;34.33;100801.47;4892327;28;102822;-83
2022/03/19 07:42:32;;;;;;;;;18.00;15.75;;;;;14.77;34.13;100801.31;4894511;28;104196;-83
2022/03/19 07:45:00;;;;;;;;;17.50;15.75;;;;;14.77;33.95;100810.28;4895649;28;102419;-83
2022/03/19 07:47:27;;;;;;;;;15.75;14.75;;;;;14.77;34.39;100802.13;4900687;28;102702;-83
2022/03/19 07:49:54;;;;;;;;;21.25;15.50;;;;;14.77;34.38;100804.84;4894582;28;103654;-82
2022/03/19 07:52:21;;;;;;;;;18.75;16.25;;;;;14.76;34.51;100802.31;4900897;28;104652;-83
2022/03/19 07:54:48;;;;;;;;;19.00;16.75;;;;;14.77;34.33;100807.56;4893018;28;102470;-82
2022/03/19 07:57:15;;;;;;;;;18.00;15.75;;;;;14.77;33.86;100815.75;4901474;28;102697;-82
2022/03/19 07:59:42;;;;;;;;;14.25;13.50;;;;;14.76;34.50;100800.44;4899391;28;102284;-83
2022/03/19 08:02:09;;;;;;;;;20.00;17.75;;;;;14.74;34.24;100797.88;4893450;28;104154;-83
2022/03/19 08:04:37;;;;;;;;;17.50;14.00;;;;;14.77;34.33;100804.84;4901779;28;102399;-83
2022/03/19 08:07:04;;;;;;;;;16.00;15.25;;;;;14.79;34.48;100808.25;4887034;28;102215;-83
2022/03/19 08:09:31;;;;;;;;;15.00;12.25;;;;;14.79;34.24;100810.97;4919670;28;102628;-83
2022/03/19 08:11:59;;;;;;;;;17.50;15.00;;;;;14.79;34.22;100813.72;4888641;28;104239;-82
2022/03/19 08:14:30;;;;;;;;;17.00;16.50;;;;;14.81;33.95;100808.94;4906869;28;102422;-83
2022/03/19 08:16:58;;;;;;;;;17.25;16.75;;;;;14.80;34.24;100807.25;4892081;28;102336;-83
2022/03/19 08:19:25;;;;;;;;;16.25;15.50;;;;;14.81;34.18;100805.38;4926293;28;102311;-83
2022/03/19 08:21:53;;;;;;;;;17.75;15.25;;;;;14.82;34.01;100812.50;4900809;28;104400;-83
2022/03/19 08:24:23;;;;;;;;;15.00;13.00;;;;;14.86;34.60;100811.97;4916646;28;102416;-83
2022/03/19 08:26:52;;;;;;;;;18.00;14.50;;;;;14.87;34.05;100810.97;4897824;28;102523;-83
2022/03/19 08:29:19;;;;;;;;;17.50;14.25;;;;;14.89;34.69;100818.97;4895327;28;102531;-83
2022/03/19 08:31:47;;;;;;;;;16.50;13.00;;;;;14.89;34.24;100825.25;4897405;28;104326;-83
2022/03/19 08:34:14;;;;;;;;;16.00;14.00;;;;;14.91;34.04;100812.31;4902136;28;103140;-83
2022/03/19 08:36:42;;;;;;;;;16.50;13.00;;;;;14.92;34.66;100814.00;4896444;28;102555;-83
2022/03/19 08:41:54;;;;;;;;;18.25;13.00;;;;;14.94;34.43;100816.56;4894232;28;104255;-82
2022/03/19 08:44:21;;;;;;;;;16.25;14.25;;;;;14.95;34.58;100819.09;4885550;28;102850;-83
2022/03/19 08:46:48;;;;;;;;;16.00;14.25;;;;;14.97;34.71;100824.38;4900222;28;104803;-83
2022/03/19 08:49:16;;;;;;;;;16.00;12.00;;;;;14.96;34.04;100812.63;4892055;28;103517;-83
2022/03/19 08:51:43;;;;;;;;;15.75;12.00;;;;;14.97;34.45;100821.66;4884422;28;104067;-83
2022/03/19 08:54:11;;;;;;;;;15.75;15.25;;;;;14.99;34.36;100814.16;4890710;28;102443;-83
2022/03/19 08:56:38;;;;;;;;;17.00;13.50;;;;;14.99;34.25;100815.03;4892673;28;102609;-83
2022/03/19 08:59:05;;;;;;;;;16.00;12.50;;;;;15.01;34.70;100817.56;4916814;28;102332;-83
2022/03/19 09:01:33;;;;;;;;;14.00;13.00;;;;;15.01;34.90;100814.81;4894449;28;104124;-83
2022/03/19 09:04:00;;;;;;;;;15.00;12.25;;;;;15.02;34.21;100813.81;4921704;28;102711;-83
2022/03/19 09:06:27;;;;;;;;;12.00;11.00;;;;;15.04;34.20;100819.94;4904388;28;102455;-83
2022/03/19 09:08:54;;;;;;;;;12.50;11.50;;;;;15.03;34.09;100813.66;4899993;28;103407;-83
2022/03/19 09:11:22;;;;;;;;;17.75;13.75;;;;;15.03;34.52;100810.06;4890700;28;104276;-83
2022/03/19 09:13:49;;;;;;;;;11.50;10.75;;;;;15.04;34.72;100815.31;4897870;28;102417;-83
2022/03/19 09:16:17;;;;;;;;;13.75;11.00;;;;;15.04;34.59;100801.69;4899800;28;102335;-83
2022/03/19 09:18:44;;;;;;;;;16.00;13.50;;;;;15.05;34.26;100805.28;4898534;28;103692;-83
2022/03/19 09:21:11;;;;;;;;;9.25;8.75;;;;;15.06;34.48;100809.72;4903747;28;104130;-83
2022/03/19 09:23:39;;;;;;;;;14.25;13.00;;;;;15.05;34.24;100806.13;4897400;28;102570;-83
2022/03/19 09:26:06;;;;;;;;;17.50;12.00;;;;;15.06;34.46;100802.38;4896083;28;102218;-83
2022/03/19 09:28:33;;;;;;;;;14.25;11.50;;;;;15.05;34.44;100808.84;4901461;28;102564;-83
2022/03/19 09:31:00;;;;;;;;;15.00;14.50;;;;;15.06;34.35;100815.16;4899089;28;104024;-82
2022/03/19 09:33:27;;;;;;;;;14.00;12.00;;;;;15.06;34.67;100802.38;4899454;28;102264;-83
2022/03/19 09:35:54;;;;;;;;;13.25;11.75;;;;;15.08;34.68;100804.94;4897867;28;102318;-83
2022/03/19 09:38:21;;;;;;;;;13.25;13.00;;;;;15.08;34.86;100810.38;4897651;28;102515;-82
2022/03/19 09:40:48;;;;;;;;;12.50;12.25;;;;;15.09;34.46;100807.47;4886228;28;111793;-83
2022/03/19 09:43:15;;;;;;;;;12.25;11.75;;;;;15.10;34.67;100803.72;4899855;28;102476;-83
2022/03/19 09:45:43;;;;;;;;;9.50;9.50;;;;;15.12;34.67;100807.13;4881843;28;102467;-83
2022/03/19 09:48:10;;;;;;;;;11.50;9.25;;;;;15.12;34.83;100815.31;4909539;28;102211;-83
2022/03/19 09:50:38;;;;;;;;;15.25;13.50;;;;;15.13;34.93;100800.63;4891898;28;108765;-83
2022/03/19 09:53:05;;;;;;;;;9.00;9.00;;;;;15.14;34.80;100799.63;4916754;28;102276;-83
2022/03/19 09:55:33;;;;;;;;;18.50;13.00;;;;;15.15;34.68;100805.91;4886214;28;102486;-83
2022/03/19 09:58:01;;;;;;;;;11.50;11.50;;;;;15.14;34.35;100799.63;4903336;28;102572;-83
2022/03/19 10:00:28;;;;;;;;;12.00;11.25;;;;;15.15;34.23;100809.50;4887278;28;103585;-83
2022/03/19 10:02:56;;;;;;;;;11.00;11.00;;;;;15.15;34.79;100798.59;4922854;28;102259;-83
2022/03/19 10:10:55;;;;;;;;;10.75;9.75;;;;;15.18;34.97;100806.41;4893186;28;108340;-83
2022/03/19 10:13:24;;;;;;;;;11.75;9.75;;;;;15.17;34.63;100807.44;4902561;28;102539;-83
2022/03/19 10:15:51;;;;;;;;;11.00;9.50;;;;;15.16;34.72;100808.47;4891890;28;102416;-83
2022/03/19 10:18:18;;;;;;;;;12.00;10.75;;;;;15.16;34.81;100804.91;4899529;28;102493;-83
2022/03/19 10:20:45;;;;;;;;;13.75;12.00;;;;;15.15;34.79;100801.31;4921662;28;104389;-83
2022/03/19 10:23:12;;;;;;;;;12.75;12.00;;;;;15.18;34.81;100811.00;4895731;28;102705;-84
2022/03/19 10:25:39;;;;;;;;;10.25;9.25;;;;;15.20;34.68;100806.25;4905740;28;103601;-83
2022/03/19 10:28:08;;;;;;;;;4.75;2.00;;;;;15.19;34.97;100808.13;4915478;28;102331;-83
2022/03/19 10:30:37;;;;;;;;;11.50;9.25;;;;;15.21;34.71;100801.66;4921440;28;106909;-83
2022/03/19 10:33:07;;;;;;;;;10.25;9.25;;;;;15.22;34.54;100803.34;4896634;28;102334;-83
2022/03/19 10:35:35;;;;;;;;;10.25;9.50;;;;;15.21;34.62;100805.22;4892571;28;102053;-83
2022/03/19 10:38:16;;;;;;;;;11.75;11.25;;;;;15.22;34.31;100808.81;4905582;28;102144;-83
2022/03/19 10:40:46;;;;;;;;;9.25;9.25;;;;;15.21;34.97;100807.94;4893333;28;108993;-83
2022/03/19 10:43:13;;;;;;;;;11.00;9.00;;;;;15.21;34.53;100801.66;4888715;28;102584;-83
2022/03/19 10:45:44;;;;;;;;;10.25;8.50;;;;;15.21;34.61;100801.66;4895984;28;102681;-83
2022/03/19 10:48:12;;;;;;;;;10.75;9.50;;;;;15.23;34.71;100810.47;4888684;28;102558;-83
2022/03/19 10:50:40;;;;;;;;;11.25;9.00;;;;;15.21;34.88;100807.09;4897693;28;105054;-83
2022/03/19 10:53:07;;;;;;;;;7.25;4.75;;;;;15.21;34.54;100807.94;4893855;28;103188;-83
2022/03/19 10:55:34;;;;;;;;;10.50;10.50;;;;;15.22;35.01;100812.34;4893167;28;102516;-83
2022/03/19 10:58:01;;;;;;;;;11.50;10.75;;;;;15.22;34.50;100797.91;4912242;28;104356;-83
2022/03/19 11:00:28;;;;;;;;;12.00;10.50;;;;;15.23;35.21;100808.59;4909989;28;104052;-83
2022/03/19 11:02:57;;;;;;;;;12.00;9.00;;;;;15.25;34.96;100805.72;4890672;28;102692;-83
2022/03/19 11:05:25;;;;;;;;;9.75;9.75;;;;;15.25;34.46;100792.94;4888429;28;103325;-83
2022/03/19 11:07:52;;;;;;;;;12.00;9.75;;;;;15.29;34.80;100787.97;4920339;28;102715;-84
2022/03/19 11:10:20;;;;;;;;;9.75;9.00;;;;;15.30;35.10;100785.09;4896384;28;103153;-84
2022/03/19 11:12:50;;;;;;;;;8.00;7.75;;;;;15.32;35.10;100782.16;4898746;28;102404;-83
2022/03/19 11:15:22;;;;;;;;;10.00;9.25;;;;;15.33;35.15;100786.59;4905387;28;102155;-83
2022/03/19 11:17:50;;;;;;;;;10.75;10.50;;;;;15.34;34.95;100791.03;4906246;28;102579;-83
2022/03/19 11:20:17;;;;;;;;;9.25;8.50;;;;;15.34;34.97;100786.41;4915685;28;104339;-83
2022/03/19 11:22:47;;;;;;;;;10.50;8.50;;;;;15.34;35.07;100780.97;4897214;28;102474;-83
2022/03/19 11:25:26;;;;;;;;;11.00;8.00;;;;;15.37;35.06;100774.28;4899254;28;103143;-83